Time;durP1;ratioP1;P1;durP2;ratioP2;P2;SDS_P1;SDS_P2;PMS_P1;PMS_P2;Temp;Humidity;BMP_temperature;BMP_pressure;BME280_temperature;BME280_humidity;BME280_pressure;Samples;Min_cycle;Max_cycle;Signal;HPM_P1;HPM_P2
2024/01/29 00:02:18;;;;;;;1999.90;999.90;;;;;;;;;;5076149;28;20047;-81
2024/01/29 00:04:45;;;;;;;1999.90;999.90;;;;;;;;;;5066756;28;20053;-81
2024/01/29 00:07:11;;;;;;;1999.90;999.90;;;;;;;;;;5035318;28;20055;-81
2024/01/29 00:09:38;;;;;;;1999.90;999.90;;;;;;;;;;5056520;28;20913;-81
2024/01/29 00:12:05;;;;;;;1999.90;999.90;;;;;;;;;;5058126;28;20128;-81
2024/01/29 00:14:32;;;;;;;1999.90;999.90;;;;;;;;;;5058356;28;20049;-82
2024/01/29 00:17:00;;;;;;;1999.90;999.90;;;;;;;;;;5041759;28;20053;-86
2024/01/29 00:19:28;;;;;;;1999.90;999.90;;;;;;;;;;5051651;28;20053;-81
2024/01/29 00:22:04;;;;;;;1999.90;999.90;;;;;;;;;;5052218;28;20497;-80
2024/01/29 00:24:30;;;;;;;1999.90;999.90;;;;;;;;;;5060296;28;20049;-84
2024/01/29 00:26:57;;;;;;;1999.90;999.90;;;;;;;;;;5064627;28;20062;-81
2024/01/29 00:29:23;;;;;;;1999.90;999.90;;;;;;;;;;5061939;28;20392;-81
2024/01/29 00:31:50;;;;;;;1999.90;999.90;;;;;;;;;;5071932;28;20070;-81
2024/01/29 00:34:16;;;;;;;1999.90;999.90;;;;;;;;;;5056614;28;20047;-81
2024/01/29 00:36:44;;;;;;;1999.90;999.90;;;;;;;;;;5062665;28;20489;-83
2024/01/29 00:39:11;;;;;;;1999.90;999.90;;;;;;;;;;5058795;28;20055;-83
2024/01/29 00:41:37;;;;;;;1999.90;999.90;;;;;;;;;;5062739;28;20403;-82
2024/01/29 00:44:04;;;;;;;1999.90;999.90;;;;;;;;;;5059359;28;20051;-81
2024/01/29 00:46:31;;;;;;;1999.90;999.90;;;;;;;;;;5055450;28;20481;-82
2024/01/29 00:48:57;;;;;;;1999.90;999.90;;;;;;;;;;5063701;28;20523;-82
2024/01/29 00:51:24;;;;;;;1999.90;999.90;;;;;;;;;;5071792;28;20047;-83
2024/01/29 00:53:52;;;;;;;1999.90;999.90;;;;;;;;;;5069577;28;20045;-81
2024/01/29 00:56:18;;;;;;;1999.90;999.90;;;;;;;;;;5054118;28;20056;-81
2024/01/29 00:58:45;;;;;;;1999.90;999.90;;;;;;;;;;5055666;28;20051;-81
2024/01/29 01:01:12;;;;;;;1999.90;999.90;;;;;;;;;;5066006;28;20072;-81
2024/01/29 01:03:38;;;;;;;1999.90;999.90;;;;;;;;;;5057343;28;20041;-81
2024/01/29 01:06:04;;;;;;;1999.90;999.90;;;;;;;;;;5074502;28;20052;-82
2024/01/29 01:08:31;;;;;;;1999.90;999.90;;;;;;;;;;5077722;28;20408;-81
2024/01/29 01:11:00;;;;;;;1999.90;999.90;;;;;;;;;;5077962;28;20166;-81
2024/01/29 01:13:26;;;;;;;1999.90;999.90;;;;;;;;;;5072989;28;20513;-81
2024/01/29 01:15:53;;;;;;;1999.90;999.90;;;;;;;;;;5060319;28;20417;-81
2024/01/29 01:18:20;;;;;;;1999.90;999.90;;;;;;;;;;5077000;28;20477;-82
2024/01/29 01:20:46;;;;;;;1999.90;999.90;;;;;;;;;;5076973;28;20037;-81
2024/01/29 01:23:13;;;;;;;1999.90;999.90;;;;;;;;;;5077186;28;20052;-81
2024/01/29 01:25:39;;;;;;;1999.90;999.90;;;;;;;;;;5075845;28;20058;-82
2024/01/29 01:28:08;;;;;;;1999.90;999.90;;;;;;;;;;5075181;28;20055;-82
2024/01/29 01:30:35;;;;;;;1999.90;999.90;;;;;;;;;;5079940;28;20040;-83
2024/01/29 01:33:01;;;;;;;1999.90;999.90;;;;;;;;;;5078839;28;20048;-81
2024/01/29 01:35:28;;;;;;;1999.90;999.90;;;;;;;;;;5083208;28;20044;-83
2024/01/29 01:37:54;;;;;;;1999.90;999.90;;;;;;;;;;5074574;28;20047;-83
2024/01/29 01:40:21;;;;;;;1999.90;999.90;;;;;;;;;;5077390;28;20076;-81
2024/01/29 01:42:48;;;;;;;1999.90;999.90;;;;;;;;;;5079468;28;20057;-81
2024/01/29 01:45:16;;;;;;;1999.90;999.90;;;;;;;;;;5073347;28;20044;-81
2024/01/29 01:47:42;;;;;;;1999.90;999.90;;;;;;;;;;5077841;28;20050;-81
2024/01/29 01:50:10;;;;;;;1999.90;999.90;;;;;;;;;;5079063;28;20048;-82
2024/01/29 01:53:13;;;;;;;1999.90;999.90;;;;;;;;;;5079292;28;20045;-81
2024/01/29 01:55:40;;;;;;;1999.90;999.90;;;;;;;;;;5078959;28;20051;-81
2024/01/29 01:58:07;;;;;;;1999.90;999.90;;;;;;;;;;5084624;28;20050;-81
2024/01/29 02:00:35;;;;;;;1999.90;999.90;;;;;;;;;;5060425;28;20045;-80
2024/01/29 02:03:02;;;;;;;1999.90;999.90;;;;;;;;;;5055705;28;20061;-81
2024/01/29 02:05:28;;;;;;;1999.90;999.90;;;;;;;;;;5055818;28;20049;-83
2024/01/29 02:07:56;;;;;;;1999.90;999.90;;;;;;;;;;5055197;28;20057;-81
2024/01/29 02:10:22;;;;;;;1999.90;999.90;;;;;;;;;;5056363;28;20041;-88
2024/01/29 02:12:49;;;;;;;1999.90;999.90;;;;;;;;;;5059285;28;20041;-81
2024/01/29 02:15:15;;;;;;;1999.90;999.90;;;;;;;;;;5065768;28;20517;-81
2024/01/29 02:17:43;;;;;;;1999.90;999.90;;;;;;;;;;5057560;28;20051;-81
2024/01/29 02:20:10;;;;;;;1999.90;999.90;;;;;;;;;;5061611;28;20131;-82
2024/01/29 02:22:42;;;;;;;1999.90;999.90;;;;;;;;;;5048820;28;20052;-82
2024/01/29 02:25:08;;;;;;;1999.90;999.90;;;;;;;;;;5051027;28;20048;-81
2024/01/29 02:27:35;;;;;;;1999.90;999.90;;;;;;;;;;5055992;28;20041;-82
2024/01/29 02:30:01;;;;;;;1999.90;999.90;;;;;;;;;;5060927;28;20045;-82
2024/01/29 02:32:28;;;;;;;1999.90;999.90;;;;;;;;;;5046688;28;20051;-81
2024/01/29 02:34:54;;;;;;;1999.90;999.90;;;;;;;;;;5063399;28;20658;-81
2024/01/29 02:37:21;;;;;;;1999.90;999.90;;;;;;;;;;5055578;28;20059;-84
2024/01/29 02:39:50;;;;;;;1999.90;999.90;;;;;;;;;;5057798;28;20059;-81
2024/01/29 02:42:16;;;;;;;1999.90;999.90;;;;;;;;;;5063386;28;20123;-81
2024/01/29 02:44:43;;;;;;;1999.90;999.90;;;;;;;;;;5066657;28;20087;-81
2024/01/29 02:47:09;;;;;;;1999.90;999.90;;;;;;;;;;5067898;28;20052;-81
2024/01/29 02:49:36;;;;;;;1999.90;999.90;;;;;;;;;;5063735;28;20481;-81
2024/01/29 02:52:24;;;;;;;1999.90;999.90;;;;;;;;;;5059466;28;20053;-83
2024/01/29 02:54:52;;;;;;;1999.90;999.90;;;;;;;;;;5059116;28;20051;-81
2024/01/29 02:57:23;;;;;;;1999.90;999.90;;;;;;;;;;5063380;28;20057;-82
2024/01/29 02:59:50;;;;;;;1999.90;999.90;;;;;;;;;;5053498;28;20136;-81
2024/01/29 03:02:16;;;;;;;1999.90;999.90;;;;;;;;;;5057708;28;20045;-82
2024/01/29 03:04:43;;;;;;;1999.90;999.90;;;;;;;;;;5074798;28;20056;-82
2024/01/29 03:07:09;;;;;;;1999.90;999.90;;;;;;;;;;5071884;28;20044;-82
2024/01/29 03:09:36;;;;;;;1999.90;999.90;;;;;;;;;;5070672;28;20044;-82
2024/01/29 03:12:04;;;;;;;1999.90;999.90;;;;;;;;;;5074458;28;20404;-82
2024/01/29 03:14:31;;;;;;;1999.90;999.90;;;;;;;;;;5073120;28;20044;-81
2024/01/29 03:16:58;;;;;;;1999.90;999.90;;;;;;;;;;5081257;28;20047;-81
2024/01/29 03:19:24;;;;;;;1999.90;999.90;;;;;;;;;;5079397;28;20074;-81
2024/01/29 03:21:51;;;;;;;1999.90;999.90;;;;;;;;;;5079499;28;20047;-82
2024/01/29 03:24:17;;;;;;;1999.90;999.90;;;;;;;;;;5075246;28;21466;-82
2024/01/29 03:26:44;;;;;;;1999.90;999.90;;;;;;;;;;5074787;28;20052;-84
2024/01/29 03:29:12;;;;;;;1999.90;999.90;;;;;;;;;;5077311;28;20413;-82
2024/01/29 03:31:38;;;;;;;1999.90;999.90;;;;;;;;;;5078724;28;20059;-82
2024/01/29 03:34:05;;;;;;;1999.90;999.90;;;;;;;;;;5082193;28;20852;-82
2024/01/29 03:36:31;;;;;;;1999.90;999.90;;;;;;;;;;5078870;28;20045;-81
2024/01/29 03:38:58;;;;;;;1999.90;999.90;;;;;;;;;;5070694;28;20044;-81
2024/01/29 03:41:24;;;;;;;1999.90;999.90;;;;;;;;;;5075762;28;20398;-82
2024/01/29 03:43:51;;;;;;;1999.90;999.90;;;;;;;;;;5081825;28;20050;-82
2024/01/29 03:46:19;;;;;;;1999.90;999.90;;;;;;;;;;5082985;28;20051;-83
2024/01/29 03:48:45;;;;;;;1999.90;999.90;;;;;;;;;;5085168;28;20041;-82
2024/01/29 03:51:12;;;;;;;1999.90;999.90;;;;;;;;;;5073220;28;20048;-82
2024/01/29 03:53:38;;;;;;;1999.90;999.90;;;;;;;;;;5074724;28;20071;-83
2024/01/29 03:56:05;;;;;;;1999.90;999.90;;;;;;;;;;5073725;28;20102;-83
2024/01/29 03:58:32;;;;;;;1999.90;999.90;;;;;;;;;;5080659;28;20051;-82
2024/01/29 04:00:59;;;;;;;1999.90;999.90;;;;;;;;;;5074351;28;20064;-83
2024/01/29 04:03:27;;;;;;;1999.90;999.90;;;;;;;;;;5072751;28;20050;-82
2024/01/29 04:05:53;;;;;;;1999.90;999.90;;;;;;;;;;5075428;28;20048;-82
2024/01/29 04:08:21;;;;;;;1999.90;999.90;;;;;;;;;;5067168;28;20412;-83
2024/01/29 04:10:47;;;;;;;1999.90;999.90;;;;;;;;;;5076988;28;20045;-82
2024/01/29 04:13:14;;;;;;;1999.90;999.90;;;;;;;;;;5078740;28;20052;-81
2024/01/29 04:15:41;;;;;;;1999.90;999.90;;;;;;;;;;5063808;28;20049;-82
2024/01/29 04:18:07;;;;;;;1999.90;999.90;;;;;;;;;;5060644;28;20040;-82
2024/01/29 04:20:36;;;;;;;1999.90;999.90;;;;;;;;;;5076046;28;20053;-83
2024/01/29 04:23:17;;;;;;;1999.90;999.90;;;;;;;;;;5078276;28;20050;-83
2024/01/29 04:25:44;;;;;;;1999.90;999.90;;;;;;;;;;5074694;28;20048;-82
2024/01/29 04:28:10;;;;;;;1999.90;999.90;;;;;;;;;;5079289;28;20503;-83
2024/01/29 04:30:37;;;;;;;1999.90;999.90;;;;;;;;;;5079617;28;20047;-82
2024/01/29 04:33:04;;;;;;;1999.90;999.90;;;;;;;;;;5084204;28;20048;-83
2024/01/29 04:35:30;;;;;;;1999.90;999.90;;;;;;;;;;5083878;28;20040;-82
2024/01/29 04:37:58;;;;;;;1999.90;999.90;;;;;;;;;;5076123;28;20053;-82
2024/01/29 04:40:25;;;;;;;1999.90;999.90;;;;;;;;;;5070345;28;20064;-84
2024/01/29 04:42:51;;;;;;;1999.90;999.90;;;;;;;;;;5078359;28;20052;-82
2024/01/29 04:45:18;;;;;;;1999.90;999.90;;;;;;;;;;5071483;28;20048;-82
2024/01/29 04:47:44;;;;;;;1999.90;999.90;;;;;;;;;;5079173;28;20048;-83
2024/01/29 04:50:11;;;;;;;1999.90;999.90;;;;;;;;;;5081121;28;20070;-82
2024/01/29 04:52:38;;;;;;;1999.90;999.90;;;;;;;;;;5079958;28;20044;-82
2024/01/29 04:55:06;;;;;;;1999.90;999.90;;;;;;;;;;5086288;28;20047;-82
2024/01/29 04:57:33;;;;;;;1999.90;999.90;;;;;;;;;;5072317;28;20045;-82
2024/01/29 05:00:00;;;;;;;1999.90;999.90;;;;;;;;;;5075461;28;20056;-83
2024/01/29 05:02:26;;;;;;;1999.90;999.90;;;;;;;;;;5072064;28;20045;-84
2024/01/29 05:04:53;;;;;;;1999.90;999.90;;;;;;;;;;5074364;28;20132;-83
2024/01/29 05:07:19;;;;;;;1999.90;999.90;;;;;;;;;;5075963;28;20488;-81
2024/01/29 05:09:46;;;;;;;1999.90;999.90;;;;;;;;;;5076568;28;20489;-82
2024/01/29 05:12:14;;;;;;;1999.90;999.90;;;;;;;;;;5082554;28;20055;-82
2024/01/29 05:14:40;;;;;;;1999.90;999.90;;;;;;;;;;5081033;28;20040;-83
2024/01/29 05:17:07;;;;;;;1999.90;999.90;;;;;;;;;;5080178;28;20477;-83
2024/01/29 05:19:33;;;;;;;1999.90;999.90;;;;;;;;;;5081498;28;20055;-84
2024/01/29 05:22:01;;;;;;;1999.90;999.90;;;;;;;;;;5071785;28;20040;-83
2024/01/29 05:24:28;;;;;;;1999.90;999.90;;;;;;;;;;5074549;28;20253;-83
2024/01/29 05:26:54;;;;;;;1999.90;999.90;;;;;;;;;;5073683;28;20492;-83
2024/01/29 05:29:22;;;;;;;1999.90;999.90;;;;;;;;;;5075154;28;20503;-83
2024/01/29 05:31:49;;;;;;;1999.90;999.90;;;;;;;;;;5079169;28;20042;-83
2024/01/29 05:34:15;;;;;;;1999.90;999.90;;;;;;;;;;5078571;28;20056;-81
2024/01/29 05:36:42;;;;;;;1999.90;999.90;;;;;;;;;;5075497;28;20058;-83
2024/01/29 05:39:08;;;;;;;1999.90;999.90;;;;;;;;;;5075189;28;20048;-83
2024/01/29 05:41:35;;;;;;;1999.90;999.90;;;;;;;;;;5081431;28;20052;-83
2024/01/29 05:44:02;;;;;;;1999.90;999.90;;;;;;;;;;5081305;28;20045;-83
2024/01/29 05:46:29;;;;;;;1999.90;999.90;;;;;;;;;;5083103;28;20037;-82
2024/01/29 05:48:56;;;;;;;1999.90;999.90;;;;;;;;;;5066892;28;20049;-84
2024/01/29 05:51:26;;;;;;;1999.90;999.90;;;;;;;;;;5075654;28;20059;-83
2024/01/29 05:53:52;;;;;;;1999.90;999.90;;;;;;;;;;5074912;28;20116;-83
2024/01/29 05:56:19;;;;;;;1999.90;999.90;;;;;;;;;;5078133;28;20079;-84
2024/01/29 05:58:46;;;;;;;1999.90;999.90;;;;;;;;;;5074632;28;20044;-84
2024/01/29 06:01:13;;;;;;;1999.90;999.90;;;;;;;;;;5071432;28;20067;-84
2024/01/29 06:03:40;;;;;;;1999.90;999.90;;;;;;;;;;5072709;28;20374;-84
2024/01/29 06:06:07;;;;;;;1999.90;999.90;;;;;;;;;;5067164;28;20053;-83
2024/01/29 06:08:34;;;;;;;1999.90;999.90;;;;;;;;;;5081683;28;20048;-83
2024/01/29 06:11:00;;;;;;;1999.90;999.90;;;;;;;;;;5074891;28;20048;-83
2024/01/29 06:13:27;;;;;;;1999.90;999.90;;;;;;;;;;5075515;28;20150;-84
2024/01/29 06:15:54;;;;;;;1999.90;999.90;;;;;;;;;;5065271;28;20119;-84
2024/01/29 06:18:20;;;;;;;1999.90;999.90;;;;;;;;;;5073979;28;20059;-84
2024/01/29 06:20:49;;;;;;;1999.90;999.90;;;;;;;;;;5076381;28;20048;-84
2024/01/29 06:23:15;;;;;;;1999.90;999.90;;;;;;;;;;5079584;28;20140;-84
2024/01/29 06:25:42;;;;;;;1999.90;999.90;;;;;;;;;;5076941;28;20135;-83
2024/01/29 06:28:08;;;;;;;1999.90;999.90;;;;;;;;;;5077733;28;20047;-84
2024/01/29 06:30:35;;;;;;;1999.90;999.90;;;;;;;;;;5068032;28;20143;-84
2024/01/29 06:33:01;;;;;;;1999.90;999.90;;;;;;;;;;5075680;28;20052;-84
2024/01/29 06:35:28;;;;;;;1999.90;999.90;;;;;;;;;;5072192;28;20584;-84
2024/01/29 06:37:56;;;;;;;1999.90;999.90;;;;;;;;;;5066772;28;20052;-84
2024/01/29 06:40:27;;;;;;;1999.90;999.90;;;;;;;;;;5071021;28;20044;-84
2024/01/29 06:42:53;;;;;;;1999.90;999.90;;;;;;;;;;5076878;28;20048;-84
2024/01/29 06:45:20;;;;;;;1999.90;999.90;;;;;;;;;;5079178;28;20051;-83
2024/01/29 06:47:46;;;;;;;1999.90;999.90;;;;;;;;;;5077766;28;20485;-84
2024/01/29 06:50:13;;;;;;;1999.90;999.90;;;;;;;;;;5082975;28;20070;-84
2024/01/29 06:52:40;;;;;;;1999.90;999.90;;;;;;;;;;5072818;28;20283;-84
2024/01/29 06:55:08;;;;;;;1999.90;999.90;;;;;;;;;;5064191;28;20064;-85
2024/01/29 06:57:35;;;;;;;1999.90;999.90;;;;;;;;;;5080463;28;20078;-84
2024/01/29 07:00:03;;;;;;;1999.90;999.90;;;;;;;;;;5069868;28;20503;-87
2024/01/29 07:02:30;;;;;;;1999.90;999.90;;;;;;;;;;5081506;28;20138;-86
2024/01/29 07:04:56;;;;;;;1999.90;999.90;;;;;;;;;;5085049;28;20052;-85
2024/01/29 07:07:23;;;;;;;1999.90;999.90;;;;;;;;;;5082710;28;20051;-86
2024/01/29 07:09:55;;;;;;;1999.90;999.90;;;;;;;;;;5086164;28;20184;-85
2024/01/29 07:12:23;;;;;;;1999.90;999.90;;;;;;;;;;5084443;28;20052;-86
2024/01/29 07:14:52;;;;;;;1999.90;999.90;;;;;;;;;;5087674;28;20052;-85
2024/01/29 07:17:18;;;;;;;1999.90;999.90;;;;;;;;;;5073177;28;20132;-85
2024/01/29 07:19:47;;;;;;;1999.90;999.90;;;;;;;;;;5083365;28;20066;-89
2024/01/29 07:22:18;;;;;;;1999.90;999.90;;;;;;;;;;5085598;28;20048;-87
2024/01/29 07:24:45;;;;;;;1999.90;999.90;;;;;;;;;;5088098;28;20138;-88
2024/01/29 07:27:11;;;;;;;1999.90;999.90;;;;;;;;;;5080498;28;20062;-88
2024/01/29 07:29:39;;;;;;;1999.90;999.90;;;;;;;;;;5075724;28;20052;-88
2024/01/29 07:32:07;;;;;;;1999.90;999.90;;;;;;;;;;5083069;28;20610;-87
2024/01/29 07:34:33;;;;;;;1999.90;999.90;;;;;;;;;;5085141;28;20046;-88
2024/01/29 07:37:00;;;;;;;1999.90;999.90;;;;;;;;;;5091336;28;20051;-87
2024/01/29 07:39:27;;;;;;;1999.90;999.90;;;;;;;;;;5089287;28;20044;-87
2024/01/29 07:41:53;;;;;;;1999.90;999.90;;;;;;;;;;5085809;28;20059;-88
2024/01/29 07:44:20;;;;;;;1999.90;999.90;;;;;;;;;;5077977;28;20028;-88
2024/01/29 07:46:49;;;;;;;1999.90;999.90;;;;;;;;;;5083735;28;20051;-89
2024/01/29 07:49:16;;;;;;;1999.90;999.90;;;;;;;;;;5075576;28;20053;-89
2024/01/29 07:51:43;;;;;;;1999.90;999.90;;;;;;;;;;5076366;28;20040;-89
2024/01/29 07:54:10;;;;;;;1999.90;999.90;;;;;;;;;;5078538;28;20075;-88
2024/01/29 07:56:39;;;;;;;1999.90;999.90;;;;;;;;;;5074840;28;20052;-88
2024/01/29 07:59:05;;;;;;;1999.90;999.90;;;;;;;;;;5077119;28;20048;-89
2024/01/29 08:01:32;;;;;;;1999.90;999.90;;;;;;;;;;5083533;28;20054;-88
2024/01/29 08:04:01;;;;;;;1999.90;999.90;;;;;;;;;;5075426;28;20049;-89
2024/01/29 08:06:28;;;;;;;1999.90;999.90;;;;;;;;;;5079172;28;20044;-89
2024/01/29 08:08:55;;;;;;;1999.90;999.90;;;;;;;;;;5079167;28;20166;-89
2024/01/29 08:11:21;;;;;;;1999.90;999.90;;;;;;;;;;5086317;28;20040;-90
2024/01/29 08:13:48;;;;;;;1999.90;999.90;;;;;;;;;;5086649;28;20471;-90
2024/01/29 08:16:15;;;;;;;1999.90;999.90;;;;;;;;;;5085365;28;20071;-90
2024/01/29 08:18:42;;;;;;;1999.90;999.90;;;;;;;;;;5078414;28;20056;-91
2024/01/29 08:21:10;;;;;;;1999.90;999.90;;;;;;;;;;5083004;28;20041;-93
2024/01/29 08:23:37;;;;;;;1999.90;999.90;;;;;;;;;;5074231;28;20061;-92
2024/01/29 08:26:04;;;;;;;1999.90;999.90;;;;;;;;;;5084898;28;20045;-91
2024/01/29 08:28:31;;;;;;;1999.90;999.90;;;;;;;;;;5081766;28;20111;-91
2024/01/29 08:30:59;;;;;;;1999.90;999.90;;;;;;;;;;5073453;28;20044;-92
2024/01/29 08:33:25;;;;;;;1999.90;999.90;;;;;;;;;;5085577;28;20112;-93
2024/01/29 08:35:52;;;;;;;1999.90;999.90;;;;;;;;;;5080424;28;20053;-93
2024/01/29 08:38:20;;;;;;;1999.90;999.90;;;;;;;;;;5069693;28;20048;-93
2024/01/29 08:40:47;;;;;;;1999.90;999.90;;;;;;;;;;5084788;28;20530;-94
2024/01/29 08:43:14;;;;;;;1999.90;999.90;;;;;;;;;;5072194;28;20049;-93
2024/01/29 08:45:40;;;;;;;1999.90;999.90;;;;;;;;;;5080380;28;20075;-95
2024/01/29 08:48:07;;;;;;;1999.90;999.90;;;;;;;;;;5093613;28;20052;-95
2024/01/29 08:50:34;;;;;;;1999.90;999.90;;;;;;;;;;5087394;28;20044;-95
2024/01/29 08:53:02;;;;;;;1999.90;999.90;;;;;;;;;;5084006;28;20135;-94
2024/01/29 08:55:31;;;;;;;1999.90;999.90;;;;;;;;;;5075206;28;20057;-95
2024/01/29 08:57:58;;;;;;;1999.90;999.90;;;;;;;;;;5087278;28;20053;-93
2024/01/29 09:00:24;;;;;;;1999.90;999.90;;;;;;;;;;5080664;28;20048;-95
2024/01/29 09:02:51;;;;;;;1999.90;999.90;;;;;;;;;;5088413;28;20044;-93
2024/01/29 09:05:17;;;;;;;1999.90;999.90;;;;;;;;;;5081306;28;20056;-95
2024/01/29 09:07:44;;;;;;;1999.90;999.90;;;;;;;;;;5086577;28;20135;-95
2024/01/29 09:10:11;;;;;;;1999.90;999.90;;;;;;;;;;5080354;28;20061;-95
2024/01/29 09:12:39;;;;;;;1999.90;999.90;;;;;;;;;;5087354;28;20044;-94
2024/01/29 09:15:07;;;;;;;1999.90;999.90;;;;;;;;;;5087142;28;20139;-95
2024/01/29 09:17:33;;;;;;;1999.90;999.90;;;;;;;;;;5081228;28;20165;-95
2024/01/29 09:20:00;;;;;;;1999.90;999.90;;;;;;;;;;5073876;28;20051;-96
2024/01/29 09:22:27;;;;;;;1999.90;999.90;;;;;;;;;;5081614;28;20064;-96
2024/01/29 09:24:54;;;;;;;1999.90;999.90;;;;;;;;;;5097445;28;20136;-93
2024/01/29 09:27:23;;;;;;;1999.90;999.90;;;;;;;;;;5103722;28;20100;-90
2024/01/29 09:29:51;;;;;;;1999.90;999.90;;;;;;;;;;5103479;23;20078;-94
2024/01/29 09:32:19;;;;;;;1999.90;999.90;;;;;;;;;;5072302;28;20044;-95
2024/01/29 09:34:47;;;;;;;1999.90;999.90;;;;;;;;;;5063140;28;20396;-96
2024/01/29 09:37:13;;;;;;;1999.90;999.90;;;;;;;;;;5078056;28;20090;-94
2024/01/29 09:39:40;;;;;;;1999.90;999.90;;;;;;;;;;5079863;28;20062;-96
2024/01/29 09:42:07;;;;;;;1999.90;999.90;;;;;;;;;;5076481;28;20558;-96
2024/01/29 09:44:38;;;;;;;1999.90;999.90;;;;;;;;;;5082121;28;20052;-95
2024/01/29 09:47:08;;;;;;;1999.90;999.90;;;;;;;;;;5061552;28;20057;-94
2024/01/29 09:49:35;;;;;;;1999.90;999.90;;;;;;;;;;5063806;28;20063;-95
2024/01/29 09:52:03;;;;;;;1999.90;999.90;;;;;;;;;;5064905;28;20123;-94
2024/01/29 09:54:30;;;;;;;1999.90;999.90;;;;;;;;;;5081705;28;20079;-94
2024/01/29 09:56:57;;;;;;;1999.90;999.90;;;;;;;;;;5077793;28;20053;-83
2024/01/29 09:59:25;;;;;;;1999.90;999.90;;;;;;;;;;5058173;28;20078;-83
2024/01/29 10:01:51;;;;;;;1999.90;999.90;;;;;;;;;;5074278;28;20071;-83
2024/01/29 10:04:21;;;;;;;1999.90;999.90;;;;;;;;;;5051574;28;20052;-83
2024/01/29 10:06:48;;;;;;;1999.90;999.90;;;;;;;;;;5067115;28;20053;-82
2024/01/29 10:09:15;;;;;;;1999.90;999.90;;;;;;;;;;5066649;28;20130;-82
2024/01/29 10:11:43;;;;;;;1999.90;999.90;;;;;;;;;;5074907;28;20588;-82
2024/01/29 10:14:12;;;;;;;1999.90;999.90;;;;;;;;;;5059346;28;20054;-82
2024/01/29 10:16:40;;;;;;;1999.90;999.90;;;;;;;;;;5043635;28;20139;-80
2024/01/29 10:19:07;;;;;;;1999.90;999.90;;;;;;;;;;5071049;28;20055;-80
2024/01/29 10:21:43;;;;;;;1999.90;999.90;;;;;;;;;;5061440;28;20068;-80
2024/01/29 10:24:13;;;;;;;;;;;;;;;;;;5044917;28;20139;-81
2024/01/29 10:26:40;;;;;;;1999.90;999.90;;;;;;;;;;5054747;28;19925;-82
2024/01/29 10:29:09;;;;;;;1999.90;999.90;;;;;;;;;;5072495;28;20101;-82
2024/01/29 10:31:36;;;;;;;1999.90;999.90;;;;;;;;;;5051819;28;20080;-82
2024/01/29 10:34:03;;;;;;;1999.90;999.90;;;;;;;;;;5035070;28;20501;-82
2024/01/29 10:36:31;;;;;;;1999.90;999.90;;;;;;;;;;5041746;28;20092;-80
2024/01/29 10:39:01;;;;;;;1999.90;999.90;;;;;;;;;;5037148;28;20049;-79
2024/01/29 10:41:33;;;;;;;1999.90;999.90;;;;;;;;;;5039499;28;20052;-80
2024/01/29 10:44:04;;;;;;;1999.90;999.90;;;;;;;;;;5051999;28;20044;-80
2024/01/29 10:46:35;;;;;;;1999.90;999.90;;;;;;;;;;5048997;28;20511;-79
2024/01/29 10:49:02;;;;;;;1999.90;999.90;;;;;;;;;;5056372;28;20062;-81
2024/01/29 10:51:29;;;;;;;1999.90;999.90;;;;;;;;;;5048354;28;20060;-79
2024/01/29 10:53:56;;;;;;;1999.90;999.90;;;;;;;;;;5048755;28;20064;-79
2024/01/29 10:56:26;;;;;;;1999.90;999.90;;;;;;;;;;5036776;28;20050;-80
2024/01/29 10:58:58;;;;;;;1999.90;999.90;;;;;;;;;;5029037;28;20049;-79
2024/01/29 11:01:25;;;;;;;1999.90;999.90;;;;;;;;;;5050297;28;20088;-79
2024/01/29 11:03:53;;;;;;;1999.90;999.90;;;;;;;;;;5018972;28;20107;-79
2024/01/29 11:06:24;;;;;;;1999.90;999.90;;;;;;;;;;5049100;28;20054;-92
2024/01/29 11:08:54;;;;;;;1999.90;999.90;;;;;;;;;;5023003;28;20056;-90
2024/01/29 11:11:23;;;;;;;1999.90;999.90;;;;;;;;;;5049865;28;20053;-93
2024/01/29 11:13:51;;;;;;;1999.90;999.90;;;;;;;;;;5041914;28;20141;-91
2024/01/29 11:16:18;;;;;;;1999.90;999.90;;;;;;;;;;5056573;28;20053;-91
2024/01/29 11:18:45;;;;;;;1999.90;999.90;;;;;;;;;;5058017;28;20476;-91
2024/01/29 11:21:14;;;;;;;1999.90;999.90;;;;;;;;;;5065367;28;20098;-91
2024/01/29 11:23:42;;;;;;;1999.90;999.90;;;;;;;;;;5060289;28;20510;-90
2024/01/29 11:26:12;;;;;;;1999.90;999.90;;;;;;;;;;5040502;28;20053;-91
2024/01/29 11:28:39;;;;;;;1999.90;999.90;;;;;;;;;;5060446;28;20509;-91
2024/01/29 11:31:12;;;;;;;1999.90;999.90;;;;;;;;;;5043558;28;20056;-91
2024/01/29 11:33:39;;;;;;;1999.90;999.90;;;;;;;;;;5054823;28;20080;-91
2024/01/29 11:36:12;;;;;;;1999.90;999.90;;;;;;;;;;5060505;28;20554;-91
2024/01/29 11:38:39;;;;;;;1999.90;999.90;;;;;;;;;;5045925;28;20132;-91
2024/01/29 11:41:07;;;;;;;1999.90;999.90;;;;;;;;;;5058101;28;20049;-91
2024/01/29 11:43:34;;;;;;;1999.90;999.90;;;;;;;;;;5044193;28;20044;-90
2024/01/29 11:46:01;;;;;;;1999.90;999.90;;;;;;;;;;5054572;28;20053;-90
2024/01/29 11:48:29;;;;;;;1999.90;999.90;;;;;;;;;;5062952;28;20063;-90
2024/01/29 11:50:57;;;;;;;1999.90;999.90;;;;;;;;;;5041073;28;20051;-89
2024/01/29 11:53:25;;;;;;;1999.90;999.90;;;;;;;;;;5054823;28;20044;-90
2024/01/29 11:55:53;;;;;;;1999.90;999.90;;;;;;;;;;5064248;28;20132;-80
2024/01/29 11:58:20;;;;;;;1999.90;999.90;;;;;;;;;;5058319;28;20532;-89
2024/01/29 12:00:48;;;;;;;1999.90;999.90;;;;;;;;;;5025687;28;20118;-89
2024/01/29 12:03:16;;;;;;;1999.90;999.90;;;;;;;;;;5063015;28;20532;-90
2024/01/29 12:05:45;;;;;;;1999.90;999.90;;;;;;;;;;5056326;28;20063;-91
2024/01/29 12:08:14;;;;;;;1999.90;999.90;;;;;;;;;;5034380;28;20211;-91
2024/01/29 12:10:40;;;;;;;1999.90;999.90;;;;;;;;;;5036846;28;20099;-92
2024/01/29 12:13:12;;;;;;;1999.90;999.90;;;;;;;;;;5062946;28;20058;-92
2024/01/29 12:15:41;;;;;;;1999.90;999.90;;;;;;;;;;5059151;28;20074;-91
2024/01/29 12:18:09;;;;;;;1999.90;999.90;;;;;;;;;;5045070;28;20054;-92
2024/01/29 12:20:37;;;;;;;1999.90;999.90;;;;;;;;;;5059463;28;20107;-92
2024/01/29 12:23:06;;;;;;;1999.90;999.90;;;;;;;;;;5029840;28;20049;-91
2024/01/29 12:25:33;;;;;;;1999.90;999.90;;;;;;;;;;5070111;28;20060;-92
2024/01/29 12:28:04;;;;;;;1999.90;999.90;;;;;;;;;;5067179;28;20056;-92
2024/01/29 12:30:31;;;;;;;1999.90;999.90;;;;;;;;;;5052230;28;20057;-93
2024/01/29 12:32:58;;;;;;;1999.90;999.90;;;;;;;;;;5067011;28;20076;-92
2024/01/29 12:35:26;;;;;;;1999.90;999.90;;;;;;;;;;5083084;28;20134;-90
2024/01/29 12:37:52;;;;;;;1999.90;999.90;;;;;;;;;;5078901;28;20056;-91
2024/01/29 12:40:21;;;;;;;1999.90;999.90;;;;;;;;;;5084439;28;20053;-91
2024/01/29 12:42:48;;;;;;;1999.90;999.90;;;;;;;;;;5075542;28;20491;-91
2024/01/29 12:45:17;;;;;;;1999.90;999.90;;;;;;;;;;5049269;28;20052;-91
2024/01/29 12:47:44;;;;;;;1999.90;999.90;;;;;;;;;;5061486;28;20418;-93
2024/01/29 12:50:15;;;;;;;1999.90;999.90;;;;;;;;;;5068687;28;20056;-91
2024/01/29 12:52:43;;;;;;;1999.90;999.90;;;;;;;;;;5047166;28;20080;-92
2024/01/29 12:55:10;;;;;;;1999.90;999.90;;;;;;;;;;5079080;28;20135;-92
2024/01/29 12:57:38;;;;;;;1999.90;999.90;;;;;;;;;;5069587;28;20056;-92
2024/01/29 13:00:07;;;;;;;1999.90;999.90;;;;;;;;;;5064403;28;20052;-92
2024/01/29 13:02:34;;;;;;;1999.90;999.90;;;;;;;;;;5064185;28;20512;-92
2024/01/29 13:05:01;;;;;;;1999.90;999.90;;;;;;;;;;5085550;28;20106;-93
2024/01/29 13:07:28;;;;;;;1999.90;999.90;;;;;;;;;;5083616;28;20057;-91
2024/01/29 13:09:57;;;;;;;1999.90;999.90;;;;;;;;;;5048760;28;20064;-91
2024/01/29 13:12:24;;;;;;;1999.90;999.90;;;;;;;;;;5085778;28;20044;-92
2024/01/29 13:14:52;;;;;;;1999.90;999.90;;;;;;;;;;5064969;28;20052;-91
2024/01/29 13:17:20;;;;;;;1999.90;999.90;;;;;;;;;;5087261;28;20059;-91
2024/01/29 13:19:47;;;;;;;1999.90;999.90;;;;;;;;;;5078092;28;20117;-92
2024/01/29 13:22:14;;;;;;;1999.90;999.90;;;;;;;;;;5057871;28;20050;-92
2024/01/29 13:24:41;;;;;;;1999.90;999.90;;;;;;;;;;5071934;28;20052;-91
2024/01/29 13:27:07;;;;;;;1999.90;999.90;;;;;;;;;;5055923;28;20088;-89
2024/01/29 13:29:35;;;;;;;1999.90;999.90;;;;;;;;;;5081003;28;20063;-88
2024/01/29 13:32:03;;;;;;;1999.90;999.90;;;;;;;;;;5063946;28;20139;-88
2024/01/29 13:34:30;;;;;;;1999.90;999.90;;;;;;;;;;5085141;28;20043;-88
2024/01/29 13:36:57;;;;;;;1999.90;999.90;;;;;;;;;;5073804;28;20048;-88
2024/01/29 13:39:23;;;;;;;1999.90;999.90;;;;;;;;;;5076518;28;20052;-88
2024/01/29 13:41:50;;;;;;;1999.90;999.90;;;;;;;;;;5078691;28;20052;-87
2024/01/29 13:44:17;;;;;;;1999.90;999.90;;;;;;;;;;5070498;28;20407;-91